Time;durP1;ratioP1;P1;durP2;ratioP2;P2;SDS_P1;SDS_P2;PMS_P1;PMS_P2;Temp;Humidity;BMP_temperature;BMP_pressure;BME280_temperature;BME280_humidity;BME280_pressure;Samples;Min_cycle;Max_cycle;Signal;HPM_P1;HPM_P2
2022/10/01 00:01:44;;;;;;;15.63;9.55;;;;;;;;;;4995568;28;20125;-74
2022/10/01 00:04:09;;;;;;;12.20;8.60;;;;;;;;;;4993456;28;20797;-74
2022/10/01 00:06:34;;;;;;;15.48;9.00;;;;;;;;;;4995148;28;20115;-73
2022/10/01 00:09:00;;;;;;;11.43;8.52;;;;;;;;;;4993032;28;20883;-73
2022/10/01 00:11:25;;;;;;;13.27;9.07;;;;;;;;;;4993229;28;20045;-72
2022/10/01 00:13:51;;;;;;;10.27;9.18;;;;;;;;;;4986904;28;20103;-73
2022/10/01 00:16:24;;;;;;;14.18;9.50;;;;;;;;;;4992424;28;20919;-72
2022/10/01 00:18:49;;;;;;;13.70;9.68;;;;;;;;;;4982215;28;20014;-72
2022/10/01 00:21:20;;;;;;;11.60;9.30;;;;;;;;;;4993460;28;20889;-72
2022/10/01 00:23:45;;;;;;;11.70;9.00;;;;;;;;;;5009684;28;20021;-71
2022/10/01 00:26:15;;;;;;;14.60;9.25;;;;;;;;;;5002870;28;20048;-72
2022/10/01 00:28:41;;;;;;;11.07;9.13;;;;;;;;;;4993034;28;20014;-73
2022/10/01 00:31:07;;;;;;;12.43;9.15;;;;;;;;;;4991622;28;20755;-75
2022/10/01 00:33:33;;;;;;;9.85;8.73;;;;;;;;;;4992478;28;20120;-73
2022/10/01 00:35:58;;;;;;;12.82;9.82;;;;;;;;;;4993142;28;20152;-72
2022/10/01 00:38:23;;;;;;;9.87;8.60;;;;;;;;;;4995572;28;20031;-71
2022/10/01 00:40:49;;;;;;;10.33;8.80;;;;;;;;;;4993358;28;20268;-72
2022/10/01 00:43:22;;;;;;;10.63;8.63;;;;;;;;;;4978735;28;20272;-70
2022/10/01 00:45:47;;;;;;;10.50;8.02;;;;;;;;;;4999780;28;20023;-73
2022/10/01 00:48:13;;;;;;;9.40;8.30;;;;;;;;;;5001415;28;20013;-70
2022/10/01 00:50:39;;;;;;;14.23;9.70;;;;;;;;;;4994643;28;20021;-75
2022/10/01 00:53:07;;;;;;;9.68;8.45;;;;;;;;;;4991741;28;20029;-75
2022/10/01 00:55:37;;;;;;;13.35;9.52;;;;;;;;;;4993956;28;20018;-77
2022/10/01 00:58:03;;;;;;;11.65;9.23;;;;;;;;;;4995166;28;20021;-75
2022/10/01 01:00:29;;;;;;;11.45;7.88;;;;;;;;;;4992563;28;20013;-73
2022/10/01 01:02:54;;;;;;;11.65;8.77;;;;;;;;;;4983895;28;20892;-73
2022/10/01 01:05:20;;;;;;;13.45;9.45;;;;;;;;;;4991605;28;20227;-72
2022/10/01 01:07:46;;;;;;;12.23;9.68;;;;;;;;;;4991530;28;20032;-75
2022/10/01 01:10:13;;;;;;;13.10;8.75;;;;;;;;;;4992038;28;20024;-73
2022/10/01 01:12:47;;;;;;;13.10;9.13;;;;;;;;;;4994251;28;20128;-72
2022/10/01 01:15:25;;;;;;;11.75;9.27;;;;;;;;;;4995599;28;20031;-72
2022/10/01 01:17:51;;;;;;;10.88;9.57;;;;;;;;;;5008556;28;20017;-72
2022/10/01 01:20:23;;;;;;;9.85;8.35;;;;;;;;;;5007262;28;20025;-74
2022/10/01 01:23:02;;;;;;;10.25;8.52;;;;;;;;;;4996390;28;20029;-71
2022/10/01 01:25:32;;;;;;;10.80;8.95;;;;;;;;;;4981772;28;20916;-72
2022/10/01 01:28:21;;;;;;;10.45;9.32;;;;;;;;;;4991430;28;20017;-71
2022/10/01 01:30:48;;;;;;;10.68;7.88;;;;;;;;;;5038163;28;20036;-72
2022/10/01 01:33:16;;;;;;;11.23;9.15;;;;;;;;;;5031838;28;20032;-72
2022/10/01 01:35:48;;;;;;;11.27;8.48;;;;;;;;;;5018643;28;20823;-72
2022/10/01 01:38:16;;;;;;;12.80;8.23;;;;;;;;;;5011566;28;20039;-72
2022/10/01 01:40:43;;;;;;;9.57;7.88;;;;;;;;;;5016525;28;20025;-72
2022/10/01 01:43:19;;;;;;;17.45;7.70;;;;;;;;;;5014016;28;20025;-73
2022/10/01 01:45:46;;;;;;;11.20;8.45;;;;;;;;;;4998874;28;20017;-73
2022/10/01 01:48:12;;;;;;;8.60;7.10;;;;;;;;;;5015176;28;20037;-76
2022/10/01 01:50:42;;;;;;;8.90;7.22;;;;;;;;;;5011855;28;21033;-74
2022/10/01 01:53:07;;;;;;;10.98;8.23;;;;;;;;;;5013269;28;20036;-73
2022/10/01 01:55:34;;;;;;;8.90;7.65;;;;;;;;;;4997285;28;20017;-74
2022/10/01 01:57:59;;;;;;;9.85;7.38;;;;;;;;;;5011208;28;20039;-69
2022/10/01 02:00:24;;;;;;;9.88;6.93;;;;;;;;;;5016378;28;20018;-71
2022/10/01 02:02:51;;;;;;;11.63;6.03;;;;;;;;;;5017622;28;20510;-73
2022/10/01 02:05:22;;;;;;;7.75;6.20;;;;;;;;;;5020251;28;20037;-74
2022/10/01 02:08:06;;;;;;;7.47;6.47;;;;;;;;;;5024076;28;20735;-74
2022/10/01 02:10:31;;;;;;;7.60;6.00;;;;;;;;;;5019265;28;20167;-72
2022/10/01 02:13:02;;;;;;;13.73;5.43;;;;;;;;;;5015155;28;20022;-72
2022/10/01 02:15:46;;;;;;;7.13;5.40;;;;;;;;;;5015970;28;20284;-71
2022/10/01 02:18:21;;;;;;;7.25;5.28;;;;;;;;;;5027233;28;20035;-73
2022/10/01 02:20:49;;;;;;;7.85;4.82;;;;;;;;;;5012976;28;20036;-72
2022/10/01 02:23:17;;;;;;;9.60;4.53;;;;;;;;;;5017008;28;20498;-73
2022/10/01 02:25:47;;;;;;;12.02;5.03;;;;;;;;;;5016580;28;20128;-71
2022/10/01 02:28:15;;;;;;;7.13;4.68;;;;;;;;;;5014921;28;20071;-71
2022/10/01 02:30:41;;;;;;;5.90;4.07;;;;;;;;;;5038807;28;20041;-73
2022/10/01 02:33:08;;;;;;;6.25;4.20;;;;;;;;;;5014792;28;20021;-74
2022/10/01 02:35:35;;;;;;;5.35;3.78;;;;;;;;;;5011994;28;20128;-70
2022/10/01 02:38:03;;;;;;;4.75;3.55;;;;;;;;;;5010069;28;20493;-74
2022/10/01 02:40:29;;;;;;;6.82;3.42;;;;;;;;;;5009414;28;20064;-74
2022/10/01 02:42:57;;;;;;;7.70;3.92;;;;;;;;;;5014838;28;20024;-75
2022/10/01 02:45:24;;;;;;;5.45;3.30;;;;;;;;;;5008976;28;20025;-78
2022/10/01 02:47:52;;;;;;;8.65;3.45;;;;;;;;;;5015474;28;20022;-73
2022/10/01 02:50:19;;;;;;;3.55;2.95;;;;;;;;;;5015535;28;20660;-72
2022/10/01 02:53:03;;;;;;;4.13;2.38;;;;;;;;;;5016187;28;20350;-72
2022/10/01 02:55:29;;;;;;;3.90;2.43;;;;;;;;;;5025746;28;20032;-72
2022/10/01 02:57:55;;;;;;;3.15;1.88;;;;;;;;;;5011885;28;20028;-72
2022/10/01 03:00:20;;;;;;;4.53;2.85;;;;;;;;;;5020007;28;20065;-73
2022/10/01 03:02:46;;;;;;;4.90;2.55;;;;;;;;;;5020116;28;20033;-73
2022/10/01 03:05:12;;;;;;;5.35;2.00;;;;;;;;;;5015877;28;20018;-71
2022/10/01 03:07:38;;;;;;;3.05;1.90;;;;;;;;;;5020810;28;20036;-74
2022/10/01 03:10:04;;;;;;;3.00;1.88;;;;;;;;;;5020873;28;20131;-73
2022/10/01 03:12:29;;;;;;;2.78;1.30;;;;;;;;;;5030742;28;20025;-72
2022/10/01 03:14:55;;;;;;;4.47;1.80;;;;;;;;;;5023548;28;20111;-74
2022/10/01 03:17:20;;;;;;;2.78;1.42;;;;;;;;;;5021231;28;20072;-74
2022/10/01 03:19:45;;;;;;;3.58;1.30;;;;;;;;;;5018143;28;20071;-72
2022/10/01 03:22:12;;;;;;;3.17;1.40;;;;;;;;;;5020711;28;20028;-71
2022/10/01 03:24:37;;;;;;;2.60;1.20;;;;;;;;;;5020367;28;20107;-70
2022/10/01 03:27:02;;;;;;;2.37;1.30;;;;;;;;;;5018360;28;20461;-70
2022/10/01 03:29:27;;;;;;;2.72;1.17;;;;;;;;;;5020531;28;20832;-70
2022/10/01 03:31:53;;;;;;;3.35;1.23;;;;;;;;;;5019828;28;20075;-71
2022/10/01 03:34:18;;;;;;;3.65;1.05;;;;;;;;;;5011493;28;20026;-73
2022/10/01 03:36:44;;;;;;;4.45;0.90;;;;;;;;;;5018073;28;20049;-73
2022/10/01 03:39:09;;;;;;;2.85;0.98;;;;;;;;;;5019630;28;20032;-74
2022/10/01 03:41:35;;;;;;;1.98;1.00;;;;;;;;;;5020974;28;20025;-73
2022/10/01 03:44:01;;;;;;;2.08;0.73;;;;;;;;;;5011976;28;20455;-71
2022/10/01 03:46:26;;;;;;;2.03;0.77;;;;;;;;;;5015664;28;20029;-72
2022/10/01 03:48:51;;;;;;;1.60;0.70;;;;;;;;;;5011674;28;20028;-72
2022/10/01 03:51:19;;;;;;;1.55;0.80;;;;;;;;;;5025028;28;20514;-72
2022/10/01 03:53:44;;;;;;;2.67;0.77;;;;;;;;;;5015319;28;20079;-73
2022/10/01 03:56:10;;;;;;;1.93;0.70;;;;;;;;;;5019464;28;20026;-72
2022/10/01 03:58:35;;;;;;;1.80;0.65;;;;;;;;;;5020545;28;20349;-70
2022/10/01 04:01:01;;;;;;;1.73;0.70;;;;;;;;;;5015612;28;20076;-70
2022/10/01 04:03:27;;;;;;;1.70;0.68;;;;;;;;;;5019182;28;20272;-72
2022/10/01 04:05:52;;;;;;;2.13;0.68;;;;;;;;;;5017840;28;20030;-72
2022/10/01 04:08:17;;;;;;;2.10;0.70;;;;;;;;;;5014197;28;20030;-70
2022/10/01 04:10:42;;;;;;;1.27;0.60;;;;;;;;;;5022523;28;20304;-72
2022/10/01 04:13:08;;;;;;;1.60;0.63;;;;;;;;;;5023779;28;20296;-74
2022/10/01 04:15:33;;;;;;;1.55;0.60;;;;;;;;;;5016704;28;20024;-73
2022/10/01 04:17:59;;;;;;;1.40;0.55;;;;;;;;;;5015449;28;20033;-73
2022/10/01 04:20:24;;;;;;;1.58;0.50;;;;;;;;;;5018320;28;20029;-68
2022/10/01 04:22:49;;;;;;;11.05;0.63;;;;;;;;;;5020629;28;20026;-73
2022/10/01 04:25:15;;;;;;;1.77;0.60;;;;;;;;;;5020762;28;20064;-73
2022/10/01 04:27:41;;;;;;;2.08;0.60;;;;;;;;;;5018880;28;20866;-72
2022/10/01 04:30:07;;;;;;;1.48;0.75;;;;;;;;;;5021422;28;20026;-70
2022/10/01 04:32:32;;;;;;;1.90;0.68;;;;;;;;;;5031278;28;20022;-74
2022/10/01 04:34:57;;;;;;;0.98;0.40;;;;;;;;;;5012660;28;20057;-71
2022/10/01 04:37:23;;;;;;;1.00;0.45;;;;;;;;;;5017725;28;20052;-72
2022/10/01 04:39:48;;;;;;;0.68;0.32;;;;;;;;;;5019089;28;20079;-73
2022/10/01 04:42:13;;;;;;;1.13;0.47;;;;;;;;;;5016659;28;20026;-69
2022/10/01 04:44:39;;;;;;;1.00;0.40;;;;;;;;;;5010524;28;20029;-72
2022/10/01 04:47:04;;;;;;;1.90;0.70;;;;;;;;;;5019583;28;20032;-74
2022/10/01 04:49:31;;;;;;;0.73;0.30;;;;;;;;;;5014997;28;20955;-71
2022/10/01 04:51:56;;;;;;;0.80;0.40;;;;;;;;;;5014852;28;20053;-73
2022/10/01 04:54:22;;;;;;;2.90;0.52;;;;;;;;;;5015591;28;20180;-70
2022/10/01 04:56:47;;;;;;;1.67;0.57;;;;;;;;;;5021440;28;20042;-72
2022/10/01 04:59:12;;;;;;;1.52;0.70;;;;;;;;;;5017365;28;20338;-73
2022/10/01 05:01:37;;;;;;;2.07;0.70;;;;;;;;;;5018764;28;20833;-71
2022/10/01 05:04:02;;;;;;;1.80;0.37;;;;;;;;;;5015386;28;21160;-72
2022/10/01 05:06:28;;;;;;;1.03;0.47;;;;;;;;;;5007565;28;20272;-72
2022/10/01 05:08:53;;;;;;;1.60;0.53;;;;;;;;;;5030076;28;20283;-71
2022/10/01 05:11:18;;;;;;;3.20;0.60;;;;;;;;;;5037699;28;20268;-72
2022/10/01 05:13:44;;;;;;;1.08;0.50;;;;;;;;;;5020456;28;20352;-72
2022/10/01 05:16:10;;;;;;;4.68;0.55;;;;;;;;;;5033867;28;20068;-72
2022/10/01 05:18:35;;;;;;;0.70;0.30;;;;;;;;;;5021683;28;20602;-72
2022/10/01 05:21:04;;;;;;;1.27;0.40;;;;;;;;;;5019467;28;20021;-71
2022/10/01 05:23:29;;;;;;;4.53;0.55;;;;;;;;;;5020119;28;20056;-72
2022/10/01 05:25:55;;;;;;;0.93;0.40;;;;;;;;;;5018904;28;20104;-72
2022/10/01 05:28:20;;;;;;;1.00;0.37;;;;;;;;;;5019761;28;20272;-72
2022/10/01 05:30:45;;;;;;;1.33;0.60;;;;;;;;;;5018603;28;20379;-72
2022/10/01 05:33:11;;;;;;;1.58;0.40;;;;;;;;;;5019553;28;20391;-73
2022/10/01 05:35:36;;;;;;;0.95;0.20;;;;;;;;;;5022263;28;20029;-72
2022/10/01 05:38:02;;;;;;;4.67;0.40;;;;;;;;;;5024072;28;20022;-73
2022/10/01 05:40:28;;;;;;;1.58;0.57;;;;;;;;;;5021232;28;20272;-72
2022/10/01 05:42:55;;;;;;;1.50;0.45;;;;;;;;;;5016257;28;20036;-70
2022/10/01 05:45:21;;;;;;;1.35;0.40;;;;;;;;;;5019645;28;20036;-71
2022/10/01 05:47:48;;;;;;;1.02;0.52;;;;;;;;;;5018155;28;20025;-70
2022/10/01 05:50:13;;;;;;;9.90;0.60;;;;;;;;;;5021900;28;20108;-71
2022/10/01 05:52:41;;;;;;;0.40;0.20;;;;;;;;;;5012034;28;20036;-69
2022/10/01 05:55:07;;;;;;;1.70;0.30;;;;;;;;;;5011123;28;20087;-68
2022/10/01 05:57:32;;;;;;;0.88;0.30;;;;;;;;;;5023414;28;20035;-70
2022/10/01 05:59:57;;;;;;;1.25;0.38;;;;;;;;;;5022353;28;20053;-70
2022/10/01 06:02:22;;;;;;;0.67;0.27;;;;;;;;;;5022700;28;20546;-72
2022/10/01 06:04:48;;;;;;;0.60;0.30;;;;;;;;;;5023872;28;20635;-70
2022/10/01 06:07:13;;;;;;;3.70;0.43;;;;;;;;;;5017189;28;20021;-72
2022/10/01 06:09:38;;;;;;;1.47;0.30;;;;;;;;;;5010468;28;20309;-72
2022/10/01 06:12:04;;;;;;;0.77;0.40;;;;;;;;;;4990835;28;20268;-69
2022/10/01 06:14:29;;;;;;;2.05;0.35;;;;;;;;;;5016253;28;20017;-67
2022/10/01 06:16:54;;;;;;;0.40;0.20;;;;;;;;;;5030971;28;20013;-68
2022/10/01 06:19:20;;;;;;;1.42;0.30;;;;;;;;;;5037871;28;20478;-70
2022/10/01 06:21:45;;;;;;;3.58;0.40;;;;;;;;;;5031633;28;20021;-68
2022/10/01 06:24:10;;;;;;;0.73;0.20;;;;;;;;;;5032480;28;20079;-70
2022/10/01 06:26:36;;;;;;;0.90;0.40;;;;;;;;;;5031882;28;20376;-70
2022/10/01 06:29:02;;;;;;;1.40;0.40;;;;;;;;;;5032519;28;20024;-69
2022/10/01 06:31:28;;;;;;;1.17;0.47;;;;;;;;;;5031708;28;20351;-71
2022/10/01 06:33:53;;;;;;;1.17;0.50;;;;;;;;;;5037963;28;20399;-72
2022/10/01 06:36:18;;;;;;;1.43;0.60;;;;;;;;;;5051817;28;20044;-70
2022/10/01 06:38:46;;;;;;;0.60;0.30;;;;;;;;;;5034208;28;20263;-72
2022/10/01 06:41:11;;;;;;;1.25;0.40;;;;;;;;;;5032151;28;20026;-72
2022/10/01 06:43:37;;;;;;;1.45;0.40;;;;;;;;;;5018685;28;20029;-72
2022/10/01 06:46:03;;;;;;;2.65;0.50;;;;;;;;;;5043173;28;20045;-69
2022/10/01 06:48:29;;;;;;;1.48;0.60;;;;;;;;;;5031694;28;20583;-69
2022/10/01 06:50:55;;;;;;;2.42;0.80;;;;;;;;;;5031571;28;20017;-71
2022/10/01 06:53:21;;;;;;;4.85;0.70;;;;;;;;;;5031722;28;20380;-71
2022/10/01 06:55:46;;;;;;;1.65;0.65;;;;;;;;;;5032356;28;20017;-71
2022/10/01 06:58:11;;;;;;;3.65;0.85;;;;;;;;;;5024183;28;20283;-71
2022/10/01 07:00:37;;;;;;;3.90;0.77;;;;;;;;;;5031501;28;20555;-71
2022/10/01 07:03:03;;;;;;;4.03;0.85;;;;;;;;;;5031020;28;20053;-70
2022/10/01 07:05:29;;;;;;;1.65;0.80;;;;;;;;;;5030401;28;20471;-72
2022/10/01 07:07:54;;;;;;;2.90;0.77;;;;;;;;;;5031306;28;20495;-69
2022/10/01 07:10:20;;;;;;;1.88;0.90;;;;;;;;;;5030805;28;20467;-72
2022/10/01 07:12:49;;;;;;;3.05;1.08;;;;;;;;;;5029738;28;20025;-72
2022/10/01 07:15:14;;;;;;;3.55;1.85;;;;;;;;;;5032138;28;20029;-72
2022/10/01 07:17:44;;;;;;;3.13;1.63;;;;;;;;;;5028631;28;20087;-72
2022/10/01 07:20:09;;;;;;;4.13;2.03;;;;;;;;;;4999540;28;20064;-71
2022/10/01 07:22:35;;;;;;;4.30;1.23;;;;;;;;;;5013285;28;20463;-71
2022/10/01 07:25:00;;;;;;;5.35;1.27;;;;;;;;;;4996587;28;20128;-71
2022/10/01 07:27:26;;;;;;;4.45;1.45;;;;;;;;;;4988889;28;20982;-69
2022/10/01 07:29:51;;;;;;;1.93;1.00;;;;;;;;;;4988945;28;20029;-69
2022/10/01 07:32:17;;;;;;;2.38;1.10;;;;;;;;;;4988907;28;20316;-71
2022/10/01 07:34:42;;;;;;;2.60;1.00;;;;;;;;;;4988331;28;20075;-74
2022/10/01 07:37:08;;;;;;;2.42;1.25;;;;;;;;;;4988735;28;20041;-73
2022/10/01 07:39:34;;;;;;;2.88;1.17;;;;;;;;;;4989896;28;20010;-74
2022/10/01 07:41:59;;;;;;;2.88;1.30;;;;;;;;;;4989124;28;20017;-73
2022/10/01 07:44:26;;;;;;;2.15;1.13;;;;;;;;;;4991486;28;20028;-73
2022/10/01 07:46:52;;;;;;;3.35;1.60;;;;;;;;;;4991263;28;20854;-73
2022/10/01 07:49:18;;;;;;;2.53;1.15;;;;;;;;;;4992591;28;20176;-74
2022/10/01 07:51:43;;;;;;;2.37;0.87;;;;;;;;;;4993470;28;20859;-74
2022/10/01 07:54:08;;;;;;;3.80;1.60;;;;;;;;;;4992198;28;20863;-74
2022/10/01 07:56:34;;;;;;;3.63;1.88;;;;;;;;;;4992370;28;20021;-74
2022/10/01 07:58:59;;;;;;;6.90;1.45;;;;;;;;;;4991369;28;20056;-73
2022/10/01 08:01:24;;;;;;;5.93;1.67;;;;;;;;;;4990147;28;20021;-73
2022/10/01 08:03:51;;;;;;;5.05;1.83;;;;;;;;;;4991343;28;21112;-73
2022/10/01 08:06:17;;;;;;;3.97;1.92;;;;;;;;;;4991789;28;20022;-73
2022/10/01 08:08:43;;;;;;;3.65;1.70;;;;;;;;;;4992617;28;21398;-72
2022/10/01 08:11:09;;;;;;;4.07;1.88;;;;;;;;;;4991842;28;20033;-72
2022/10/01 08:13:35;;;;;;;3.25;1.83;;;;;;;;;;4991660;28;20054;-73
2022/10/01 08:16:01;;;;;;;3.40;2.00;;;;;;;;;;4991933;28;20103;-71
2022/10/01 08:18:26;;;;;;;8.25;3.13;;;;;;;;;;4991678;28;20025;-74
2022/10/01 08:20:51;;;;;;;6.13;2.75;;;;;;;;;;4990434;28;20106;-72
2022/10/01 08:23:17;;;;;;;8.67;3.50;;;;;;;;;;4992014;28;20033;-68
2022/10/01 08:25:42;;;;;;;9.80;4.13;;;;;;;;;;4991436;28;20318;-72
2022/10/01 08:28:09;;;;;;;10.10;3.53;;;;;;;;;;4991178;28;20136;-72
2022/10/01 08:30:35;;;;;;;6.32;3.75;;;;;;;;;;4991424;28;20079;-71
2022/10/01 08:33:01;;;;;;;11.60;3.95;;;;;;;;;;4990457;28;20014;-72
2022/10/01 08:35:27;;;;;;;10.45;3.95;;;;;;;;;;4986504;28;20875;-72
2022/10/01 08:37:54;;;;;;;8.30;3.55;;;;;;;;;;4990437;28;20033;-72
2022/10/01 08:40:20;;;;;;;10.43;5.10;;;;;;;;;;4986404;28;20049;-73
2022/10/01 08:42:52;;;;;;;10.18;4.30;;;;;;;;;;4991717;28;20075;-72
2022/10/01 08:45:36;;;;;;;10.70;4.47;;;;;;;;;;4991170;28;20025;-72
2022/10/01 08:48:07;;;;;;;8.17;4.40;;;;;;;;;;4982275;28;20215;-72
2022/10/01 08:50:48;;;;;;;10.10;4.20;;;;;;;;;;4991054;28;20280;-71
2022/10/01 08:53:16;;;;;;;9.75;3.50;;;;;;;;;;4989453;28;20899;-72
2022/10/01 08:55:43;;;;;;;11.88;3.78;;;;;;;;;;4991255;28;20021;-72
2022/10/01 08:58:10;;;;;;;10.18;3.78;;;;;;;;;;4991374;28;20348;-72
2022/10/01 09:00:39;;;;;;;7.25;3.53;;;;;;;;;;4991193;28;20084;-72
2022/10/01 09:03:05;;;;;;;9.27;3.90;;;;;;;;;;5023054;28;20867;-71
2022/10/01 09:05:44;;;;;;;13.57;4.13;;;;;;;;;;4991085;28;20026;-72
2022/10/01 09:08:16;;;;;;;12.63;4.43;;;;;;;;;;4991573;28;20028;-72
2022/10/01 09:10:45;;;;;;;9.23;4.00;;;;;;;;;;4990506;28;20021;-72
2022/10/01 09:13:11;;;;;;;7.72;4.15;;;;;;;;;;4990521;28;20052;-72
2022/10/01 09:15:55;;;;;;;20.95;5.20;;;;;;;;;;4989866;28;20779;-71
2022/10/01 09:18:27;;;;;;;8.07;3.97;;;;;;;;;;4990672;28;20017;-72
2022/10/01 09:20:56;;;;;;;8.68;4.03;;;;;;;;;;4990869;28;20022;-71
2022/10/01 09:23:22;;;;;;;8.68;4.28;;;;;;;;;;4990132;28;20021;-71
2022/10/01 09:25:49;;;;;;;10.85;3.90;;;;;;;;;;4990184;28;20026;-70
2022/10/01 09:28:15;;;;;;;9.85;4.18;;;;;;;;;;4975262;28;20043;-72
2022/10/01 09:30:44;;;;;;;10.48;4.07;;;;;;;;;;4991952;28;20219;-68
2022/10/01 09:33:21;;;;;;;12.40;5.15;;;;;;;;;;4990166;28;20868;-73
2022/10/01 09:36:04;;;;;;;13.00;4.75;;;;;;;;;;4991372;28;20414;-72
2022/10/01 09:38:33;;;;;;;13.38;4.00;;;;;;;;;;4990883;28;20021;-72
2022/10/01 09:40:59;;;;;;;10.75;4.88;;;;;;;;;;4990873;28;20144;-73
2022/10/01 09:43:26;;;;;;;9.10;3.72;;;;;;;;;;4988571;28;20160;-68
2022/10/01 09:45:51;;;;;;;12.65;4.60;;;;;;;;;;4989617;28;20911;-73
2022/10/01 09:48:20;;;;;;;11.93;4.38;;;;;;;;;;4988886;28;20026;-69
2022/10/01 09:50:55;;;;;;;11.60;4.13;;;;;;;;;;4990874;28;20024;-71
2022/10/01 09:53:23;;;;;;;8.55;3.92;;;;;;;;;;4990458;28;20028;-71
2022/10/01 09:55:54;;;;;;;9.77;3.47;;;;;;;;;;4990181;28;20014;-72
2022/10/01 09:58:21;;;;;;;13.90;4.70;;;;;;;;;;4989992;28;20022;-67
2022/10/01 10:00:50;;;;;;;6.80;3.20;;;;;;;;;;4990273;28;20022;-72
2022/10/01 10:03:28;;;;;;;9.35;3.65;;;;;;;;;;4988111;28;20784;-71
2022/10/01 10:05:53;;;;;;;13.40;4.35;;;;;;;;;;4989500;28;20025;-70
2022/10/01 10:08:30;;;;;;;10.00;4.57;;;;;;;;;;4989095;28;20115;-69
2022/10/01 10:11:04;;;;;;;13.70;3.95;;;;;;;;;;4988692;28;20095;-69
2022/10/01 10:13:37;;;;;;;6.93;2.78;;;;;;;;;;4991187;28;20028;-72
2022/10/01 10:16:38;;;;;;;7.65;4.47;;;;;;;;;;4992138;28;21317;-72
2022/10/01 10:19:08;;;;;;;8.50;3.63;;;;;;;;;;4977586;28;20036;-72
2022/10/01 10:21:33;;;;;;;16.88;4.10;;;;;;;;;;4991334;28;20094;-71
2022/10/01 10:24:19;;;;;;;8.68;3.40;;;;;;;;;;4993515;28;20080;-72
2022/10/01 10:26:50;;;;;;;11.00;3.95;;;;;;;;;;4990935;28;20018;-71
2022/10/01 10:29:24;;;;;;;7.68;3.90;;;;;;;;;;4989109;28;20083;-71
2022/10/01 10:31:50;;;;;;;8.15;3.65;;;;;;;;;;4990969;28;20009;-67
2022/10/01 10:34:17;;;;;;;8.40;3.90;;;;;;;;;;4989442;28;20902;-67
2022/10/01 10:36:43;;;;;;;14.52;4.60;;;;;;;;;;4989849;28;20030;-67
2022/10/01 10:39:18;;;;;;;7.68;3.92;;;;;;;;;;4989359;28;20030;-68
2022/10/01 10:41:43;;;;;;;;;;;;;;;;;;4989528;28;20025;-68
2022/10/01 10:44:13;;;;;;;21.85;4.32;;;;;;;;;;4989461;28;19905;-70
2022/10/01 10:46:38;;;;;;;11.32;3.90;;;;;;;;;;4988398;28;20021;-70
2022/10/01 10:49:14;;;;;;;13.05;4.40;;;;;;;;;;4988966;28;20029;-72
2022/10/01 10:51:43;;;;;;;5.90;3.42;;;;;;;;;;4988943;28;20032;-70
2022/10/01 10:54:16;;;;;;;12.48;4.00;;;;;;;;;;4988618;28;20026;-73
2022/10/01 10:56:49;;;;;;;9.90;3.55;;;;;;;;;;4988428;28;20073;-73
2022/10/01 10:59:16;;;;;;;8.35;3.42;;;;;;;;;;4989075;28;20128;-73
2022/10/01 11:01:41;;;;;;;8.52;2.80;;;;;;;;;;4988929;28;20048;-68
2022/10/01 11:04:17;;;;;;;9.40;5.00;;;;;;;;;;4988484;28;20898;-68
2022/10/01 11:06:52;;;;;;;9.95;3.78;;;;;;;;;;4988997;28;20092;-67
2022/10/01 11:09:17;;;;;;;10.82;4.07;;;;;;;;;;4989237;28;20079;-69
2022/10/01 11:11:49;;;;;;;6.88;3.08;;;;;;;;;;4989858;28;20018;-74
2022/10/01 11:14:34;;;;;;;11.20;3.70;;;;;;;;;;4989070;28;20585;-74
2022/10/01 11:16:59;;;;;;;;;;;;;;;;;;4989442;28;20132;-72
2022/10/01 11:19:43;;;;;;;11.35;3.80;;;;;;;;;;4991931;28;19905;-72
2022/10/01 11:22:08;;;;;;;9.70;3.72;;;;;;;;;;4994460;28;20057;-72
2022/10/01 11:24:44;;;;;;;8.10;3.07;;;;;;;;;;4993928;28;20071;-72
2022/10/01 11:27:16;;;;;;;7.47;3.25;;;;;;;;;;4980449;28;20021;-69
2022/10/01 11:29:47;;;;;;;13.48;3.58;;;;;;;;;;4993178;28;20049;-74
2022/10/01 11:32:28;;;;;;;9.63;3.55;;;;;;;;;;4993223;28;20049;-72
2022/10/01 11:35:17;;;;;;;10.77;4.00;;;;;;;;;;4991148;28;20037;-72
2022/10/01 11:37:47;;;;;;;9.52;3.97;;;;;;;;;;4992927;28;20083;-73
2022/10/01 11:40:23;;;;;;;7.20;4.07;;;;;;;;;;4993173;28;20056;-73
2022/10/01 11:42:50;;;;;;;7.20;3.55;;;;;;;;;;4993803;28;20028;-74
2022/10/01 11:45:22;;;;;;;10.43;3.65;;;;;;;;;;4992654;28;20028;-74
2022/10/01 11:47:52;;;;;;;8.80;3.15;;;;;;;;;;4991221;28;20875;-73
2022/10/01 11:50:24;;;;;;;10.85;4.10;;;;;;;;;;4992194;28;20021;-68
2022/10/01 11:52:57;;;;;;;5.55;2.80;;;;;;;;;;4991828;28;20241;-73
2022/10/01 12:01:07;;;;;;;6.40;3.28;;;;;;;;;;4991976;28;20083;-72
2022/10/01 12:03:52;;;;;;;7.53;3.30;;;;;;;;;;4991665;28;20136;-72
2022/10/01 12:06:24;;;;;;;6.68;3.15;;;;;;;;;;4976473;28;20296;-71
2022/10/01 12:08:53;;;;;;;13.20;4.28;;;;;;;;;;4991629;28;20869;-71
2022/10/01 12:11:38;;;;;;;7.50;4.30;;;;;;;;;;4990448;28;20032;-69
2022/10/01 12:14:04;;;;;;;;;;;;;;;;;;4991974;28;20021;-66
2022/10/01 12:16:39;;;;;;;11.40;3.83;;;;;;;;;;4991070;28;19929;-69
2022/10/01 12:19:24;;;;;;;8.43;3.63;;;;;;;;;;4992709;28;20361;-73
2022/10/01 12:22:04;;;;;;;8.90;3.28;;;;;;;;;;4987234;28;20095;-74
2022/10/01 12:24:40;;;;;;;8.90;3.25;;;;;;;;;;4991628;28;20025;-63
2022/10/01 12:27:24;;;;;;;16.15;3.30;;;;;;;;;;4992593;28;20124;-69
2022/10/01 12:29:49;;;;;;;7.85;2.90;;;;;;;;;;4991420;28;20137;-67
2022/10/01 12:32:27;;;;;;;12.40;3.37;;;;;;;;;;4992495;28;20025;-67
2022/10/01 12:35:04;;;;;;;7.55;3.20;;;;;;;;;;4991344;28;20044;-67
2022/10/01 12:37:32;;;;;;;9.95;3.35;;;;;;;;;;4991389;28;20026;-72
2022/10/01 12:40:06;;;;;;;6.25;2.78;;;;;;;;;;4991634;28;20175;-69
2022/10/01 12:42:48;;;;;;;5.45;3.00;;;;;;;;;;4990974;28;20021;-71
2022/10/01 12:45:32;;;;;;;12.48;3.80;;;;;;;;;;4991372;28;20889;-68
2022/10/01 12:48:06;;;;;;;5.90;3.17;;;;;;;;;;4990599;28;20032;-70
2022/10/01 12:50:31;;;;;;;;;;;;;;;;;;4990541;28;20030;-70
2022/10/01 12:53:08;;;;;;;7.97;3.47;;;;;;;;;;4989922;28;20023;-67
2022/10/01 12:55:53;;;;;;;8.63;3.58;;;;;;;;;;4990789;28;20033;-69
2022/10/01 12:58:18;;;;;;;11.65;3.15;;;;;;;;;;4990672;28;20231;-67
2022/10/01 13:00:51;;;;;;;11.60;3.87;;;;;;;;;;4989965;28;20905;-67
2022/10/01 13:03:36;;;;;;;7.20;3.08;;;;;;;;;;4988836;28;20268;-66
2022/10/01 13:06:01;;;;;;;11.13;3.25;;;;;;;;;;4989902;28;20026;-69
2022/10/01 13:08:26;;;;;;;7.67;3.40;;;;;;;;;;4989905;28;20080;-68
2022/10/01 13:11:04;;;;;;;8.10;3.00;;;;;;;;;;4989308;28;20874;-66
2022/10/01 13:13:33;;;;;;;8.70;2.80;;;;;;;;;;4987537;28;20035;-68
2022/10/01 13:16:20;;;;;;;11.23;3.78;;;;;;;;;;4990230;28;20029;-69
2022/10/01 13:19:05;;;;;;;8.43;3.55;;;;;;;;;;4989977;28;20033;-67
2022/10/01 13:21:51;;;;;;;16.15;4.53;;;;;;;;;;4982844;28;20037;-68
2022/10/01 13:24:25;;;;;;;8.38;2.92;;;;;;;;;;4987278;28;20040;-70
2022/10/01 13:27:08;;;;;;;6.85;3.53;;;;;;;;;;4988154;28;20151;-68
2022/10/01 13:29:51;;;;;;;6.88;3.47;;;;;;;;;;4990653;28;20904;-69
2022/10/01 13:32:24;;;;;;;10.25;3.40;;;;;;;;;;4989281;28;20030;-68
2022/10/01 13:34:49;;;;;;;9.02;3.20;;;;;;;;;;4988879;28;20021;-70
2022/10/01 13:37:16;;;;;;;5.63;3.03;;;;;;;;;;4989287;28;20191;-73
2022/10/01 13:39:42;;;;;;;12.60;3.78;;;;;;;;;;4990113;28;20738;-68
2022/10/01 13:42:21;;;;;;;9.25;3.47;;;;;;;;;;4989198;28;20018;-69
2022/10/01 13:44:51;;;;;;;11.75;3.13;;;;;;;;;;4990441;28;20049;-75
2022/10/01 13:47:18;;;;;;;8.95;3.40;;;;;;;;;;4990819;28;20021;-75
2022/10/01 13:49:51;;;;;;;7.07;2.97;;;;;;;;;;4991316;28;20028;-75
2022/10/01 13:52:20;;;;;;;9.43;4.23;;;;;;;;;;4990653;28;20160;-71
2022/10/01 13:54:49;;;;;;;6.30;3.13;;;;;;;;;;4990711;28;20319;-72
2022/10/01 13:57:35;;;;;;;10.20;3.05;;;;;;;;;;4987405;28;20079;-71
2022/10/01 14:00:00;;;;;;;8.90;3.60;;;;;;;;;;4982846;28;20946;-70
2022/10/01 14:02:36;;;;;;;11.90;3.27;;;;;;;;;;4993051;28;20017;-70
2022/10/01 14:05:21;;;;;;;8.77;3.15;;;;;;;;;;4983479;28;20060;-72
2022/10/01 14:07:49;;;;;;;10.60;3.30;;;;;;;;;;4991168;28;20014;-73
2022/10/01 14:10:14;;;;;;;9.88;2.95;;;;;;;;;;4990422;28;20086;-71
2022/10/01 14:18:08;;;;;;;8.80;3.28;;;;;;;;;;4989141;28;20068;-69
2022/10/01 14:20:37;;;;;;;7.00;3.00;;;;;;;;;;4989947;28;20027;-67
2022/10/01 14:23:13;;;;;;;7.72;3.15;;;;;;;;;;4989620;28;20029;-68
2022/10/01 14:25:50;;;;;;;9.00;2.47;;;;;;;;;;4989199;28;20040;-68
2022/10/01 14:28:18;;;;;;;6.70;2.75;;;;;;;;;;4989106;28;20040;-70
2022/10/01 14:30:49;;;;;;;9.68;3.25;;;;;;;;;;4989565;28;20902;-69
2022/10/01 14:33:35;;;;;;;3.75;1.92;;;;;;;;;;4989217;28;20029;-69
2022/10/01 14:36:01;;;;;;;10.32;2.85;;;;;;;;;;4982193;28;20029;-69
2022/10/01 14:38:26;;;;;;;6.93;2.85;;;;;;;;;;4989078;28;20028;-69
2022/10/01 14:40:52;;;;;;;8.88;2.78;;;;;;;;;;4989214;28;20025;-70
2022/10/01 14:43:21;;;;;;;7.22;3.13;;;;;;;;;;4989718;28;20037;-71
2022/10/01 14:46:00;;;;;;;7.93;2.78;;;;;;;;;;4975852;28;20887;-68
2022/10/01 14:48:30;;;;;;;8.27;2.78;;;;;;;;;;4989079;28;20159;-74
2022/10/01 14:51:00;;;;;;;9.55;3.22;;;;;;;;;;4988442;28;20076;-72
2022/10/01 14:53:31;;;;;;;7.80;2.78;;;;;;;;;;4992574;28;20077;-70
2022/10/01 14:55:59;;;;;;;5.00;2.42;;;;;;;;;;4993648;28;20021;-74
2022/10/01 14:58:30;;;;;;;14.38;2.85;;;;;;;;;;4985554;28;20026;-74
2022/10/01 15:00:56;;;;;;;7.03;3.00;;;;;;;;;;4993249;28;20824;-71
2022/10/01 15:03:21;;;;;;;7.50;3.10;;;;;;;;;;4993027;28;20083;-72